sensor_id;sensor_type;location;lat;lon;timestamp;temperature;humidity
7240;DHT22;3661;53.288;10.458;2023-12-20T00:01:35;6.40;99.90
7240;DHT22;3661;53.288;10.458;2023-12-20T00:04:07;6.30;99.90
7240;DHT22;3661;53.288;10.458;2023-12-20T00:06:39;6.30;99.90
7240;DHT22;3661;53.288;10.458;2023-12-20T00:09:13;6.30;99.90
7240;DHT22;3661;53.288;10.458;2023-12-20T00:11:45;6.20;99.90
7240;DHT22;3661;53.288;10.458;2023-12-20T00:14:17;6.20;99.90
7240;DHT22;3661;53.288;10.458;2023-12-20T00:16:49;6.20;99.90
7240;DHT22;3661;53.288;10.458;2023-12-20T00:19:21;6.20;99.90
7240;DHT22;3661;53.288;10.458;2023-12-20T00:21:53;6.10;99.90
7240;DHT22;3661;53.288;10.458;2023-12-20T00:24:26;6.10;99.90
7240;DHT22;3661;53.288;10.458;2023-12-20T00:26:58;6.10;99.90
7240;DHT22;3661;53.288;10.458;2023-12-20T00:29:30;6.10;99.90
7240;DHT22;3661;53.288;10.458;2023-12-20T00:32:03;6.10;99.90
7240;DHT22;3661;53.288;10.458;2023-12-20T00:34:35;6.10;99.90
7240;DHT22;3661;53.288;10.458;2023-12-20T00:37:08;6.00;99.90
7240;DHT22;3661;53.288;10.458;2023-12-20T00:39:42;6.00;99.90
7240;DHT22;3661;53.288;10.458;2023-12-20T00:42:14;6.00;99.90
7240;DHT22;3661;53.288;10.458;2023-12-20T00:44:46;5.90;99.90
7240;DHT22;3661;53.288;10.458;2023-12-20T00:47:18;5.90;99.90
7240;DHT22;3661;53.288;10.458;2023-12-20T00:49:50;5.90;99.90
7240;DHT22;3661;53.288;10.458;2023-12-20T00:52:23;5.90;99.90
7240;DHT22;3661;53.288;10.458;2023-12-20T00:54:57;5.80;99.90
7240;DHT22;3661;53.288;10.458;2023-12-20T00:57:31;5.80;99.90
7240;DHT22;3661;53.288;10.458;2023-12-20T01:00:03;5.80;99.90
7240;DHT22;3661;53.288;10.458;2023-12-20T01:02:36;5.80;99.90
7240;DHT22;3661;53.288;10.458;2023-12-20T01:05:08;5.80;99.90
7240;DHT22;3661;53.288;10.458;2023-12-20T01:07:40;5.70;99.90
7240;DHT22;3661;53.288;10.458;2023-12-20T01:10:14;5.70;99.90
7240;DHT22;3661;53.288;10.458;2023-12-20T01:12:46;5.60;99.90
7240;DHT22;3661;53.288;10.458;2023-12-20T01:15:18;5.60;99.90
7240;DHT22;3661;53.288;10.458;2023-12-20T01:17:50;5.60;99.90
7240;DHT22;3661;53.288;10.458;2023-12-20T01:20:22;5.50;99.90
7240;DHT22;3661;53.288;10.458;2023-12-20T01:22:54;5.50;99.90
7240;DHT22;3661;53.288;10.458;2023-12-20T01:25:27;5.50;99.90
7240;DHT22;3661;53.288;10.458;2023-12-20T01:27:59;5.50;99.90
7240;DHT22;3661;53.288;10.458;2023-12-20T01:30:32;5.40;99.90
7240;DHT22;3661;53.288;10.458;2023-12-20T01:33:04;5.40;99.90
7240;DHT22;3661;53.288;10.458;2023-12-20T01:35:38;5.40;99.90
7240;DHT22;3661;53.288;10.458;2023-12-20T01:38:10;5.40;99.90
7240;DHT22;3661;53.288;10.458;2023-12-20T01:40:43;5.40;99.90
7240;DHT22;3661;53.288;10.458;2023-12-20T01:43:15;5.40;99.90
7240;DHT22;3661;53.288;10.458;2023-12-20T01:45:48;5.40;99.90
7240;DHT22;3661;53.288;10.458;2023-12-20T01:48:20;5.40;99.90
7240;DHT22;3661;53.288;10.458;2023-12-20T01:50:52;5.40;99.90
7240;DHT22;3661;53.288;10.458;2023-12-20T01:53:25;5.40;99.90
7240;DHT22;3661;53.288;10.458;2023-12-20T01:56:00;5.40;99.90
7240;DHT22;3661;53.288;10.458;2023-12-20T01:58:33;5.40;99.90
7240;DHT22;3661;53.288;10.458;2023-12-20T02:01:05;5.40;99.90
7240;DHT22;3661;53.288;10.458;2023-12-20T02:03:38;5.40;99.90
7240;DHT22;3661;53.288;10.458;2023-12-20T02:06:11;5.30;99.90
7240;DHT22;3661;53.288;10.458;2023-12-20T02:08:43;5.30;99.90
7240;DHT22;3661;53.288;10.458;2023-12-20T02:11:16;5.30;99.90
7240;DHT22;3661;53.288;10.458;2023-12-20T02:13:49;5.30;99.90
7240;DHT22;3661;53.288;10.458;2023-12-20T02:16:21;5.30;99.90
7240;DHT22;3661;53.288;10.458;2023-12-20T02:18:53;5.30;99.90
7240;DHT22;3661;53.288;10.458;2023-12-20T02:21:32;5.20;99.90
7240;DHT22;3661;53.288;10.458;2023-12-20T02:24:05;5.20;99.90
7240;DHT22;3661;53.288;10.458;2023-12-20T02:26:38;5.20;99.90
7240;DHT22;3661;53.288;10.458;2023-12-20T02:29:10;5.10;99.90
7240;DHT22;3661;53.288;10.458;2023-12-20T02:31:42;5.10;99.90
7240;DHT22;3661;53.288;10.458;2023-12-20T02:34:15;5.10;99.90
7240;DHT22;3661;53.288;10.458;2023-12-20T02:36:48;5.10;99.90
7240;DHT22;3661;53.288;10.458;2023-12-20T02:39:22;5.10;99.90
7240;DHT22;3661;53.288;10.458;2023-12-20T02:41:54;5.00;99.90
7240;DHT22;3661;53.288;10.458;2023-12-20T02:44:27;5.00;99.90
7240;DHT22;3661;53.288;10.458;2023-12-20T02:46:59;5.00;99.90
7240;DHT22;3661;53.288;10.458;2023-12-20T02:49:31;5.00;99.90
7240;DHT22;3661;53.288;10.458;2023-12-20T02:52:05;5.00;99.90
7240;DHT22;3661;53.288;10.458;2023-12-20T02:54:37;4.90;99.90
7240;DHT22;3661;53.288;10.458;2023-12-20T02:57:10;4.90;99.90
7240;DHT22;3661;53.288;10.458;2023-12-20T02:59:42;4.90;99.90
7240;DHT22;3661;53.288;10.458;2023-12-20T03:02:15;4.90;99.90
7240;DHT22;3661;53.288;10.458;2023-12-20T03:04:47;4.90;99.90
7240;DHT22;3661;53.288;10.458;2023-12-20T03:07:20;4.90;99.90
7240;DHT22;3661;53.288;10.458;2023-12-20T03:09:52;4.90;99.90
7240;DHT22;3661;53.288;10.458;2023-12-20T03:12:27;4.90;99.90
7240;DHT22;3661;53.288;10.458;2023-12-20T03:14:59;4.90;99.90
7240;DHT22;3661;53.288;10.458;2023-12-20T03:17:34;4.80;99.90
7240;DHT22;3661;53.288;10.458;2023-12-20T03:20:07;4.80;99.90
7240;DHT22;3661;53.288;10.458;2023-12-20T03:22:41;4.90;99.90
7240;DHT22;3661;53.288;10.458;2023-12-20T03:25:13;4.80;99.90
7240;DHT22;3661;53.288;10.458;2023-12-20T03:27:45;4.80;99.90
7240;DHT22;3661;53.288;10.458;2023-12-20T03:30:17;4.80;99.90
7240;DHT22;3661;53.288;10.458;2023-12-20T03:32:49;4.80;99.90
7240;DHT22;3661;53.288;10.458;2023-12-20T03:35:21;4.80;99.90
7240;DHT22;3661;53.288;10.458;2023-12-20T03:37:55;4.80;99.90
7240;DHT22;3661;53.288;10.458;2023-12-20T03:40:27;4.80;99.90
7240;DHT22;3661;53.288;10.458;2023-12-20T03:42:59;4.80;99.90
7240;DHT22;3661;53.288;10.458;2023-12-20T03:45:31;4.80;99.90
7240;DHT22;3661;53.288;10.458;2023-12-20T03:48:04;4.80;99.90
7240;DHT22;3661;53.288;10.458;2023-12-20T03:50:36;4.80;99.90
7240;DHT22;3661;53.288;10.458;2023-12-20T03:53:10;4.80;99.90
7240;DHT22;3661;53.288;10.458;2023-12-20T03:55:42;4.80;99.90
7240;DHT22;3661;53.288;10.458;2023-12-20T03:58:22;4.80;99.90
7240;DHT22;3661;53.288;10.458;2023-12-20T04:00:54;4.70;99.90
7240;DHT22;3661;53.288;10.458;2023-12-20T04:03:28;4.70;99.90
7240;DHT22;3661;53.288;10.458;2023-12-20T04:06:00;4.70;99.90
7240;DHT22;3661;53.288;10.458;2023-12-20T04:08:33;4.70;99.90
7240;DHT22;3661;53.288;10.458;2023-12-20T04:11:05;4.70;99.90
7240;DHT22;3661;53.288;10.458;2023-12-20T04:13:37;4.70;99.90
7240;DHT22;3661;53.288;10.458;2023-12-20T04:16:09;4.80;99.90
7240;DHT22;3661;53.288;10.458;2023-12-20T04:18:41;4.80;99.90
7240;DHT22;3661;53.288;10.458;2023-12-20T04:21:13;4.80;99.90
7240;DHT22;3661;53.288;10.458;2023-12-20T04:23:47;4.80;99.90
7240;DHT22;3661;53.288;10.458;2023-12-20T04:26:19;4.80;99.90
7240;DHT22;3661;53.288;10.458;2023-12-20T04:28:51;4.80;99.90
7240;DHT22;3661;53.288;10.458;2023-12-20T04:31:24;4.80;99.90
7240;DHT22;3661;53.288;10.458;2023-12-20T04:33:56;4.80;99.90
7240;DHT22;3661;53.288;10.458;2023-12-20T04:36:29;4.80;99.90
7240;DHT22;3661;53.288;10.458;2023-12-20T04:39:03;4.80;99.90
7240;DHT22;3661;53.288;10.458;2023-12-20T04:41:35;4.80;99.90
7240;DHT22;3661;53.288;10.458;2023-12-20T04:44:07;4.90;99.90
7240;DHT22;3661;53.288;10.458;2023-12-20T04:46:39;4.90;99.90
7240;DHT22;3661;53.288;10.458;2023-12-20T04:49:11;4.90;99.90
7240;DHT22;3661;53.288;10.458;2023-12-20T04:51:43;4.90;99.90
7240;DHT22;3661;53.288;10.458;2023-12-20T04:54:17;4.90;99.90
7240;DHT22;3661;53.288;10.458;2023-12-20T04:56:49;4.90;99.90
7240;DHT22;3661;53.288;10.458;2023-12-20T04:59:21;4.90;99.90
7240;DHT22;3661;53.288;10.458;2023-12-20T05:01:53;4.90;99.90
7240;DHT22;3661;53.288;10.458;2023-12-20T05:04:25;4.90;99.90
7240;DHT22;3661;53.288;10.458;2023-12-20T05:06:57;4.90;99.90
7240;DHT22;3661;53.288;10.458;2023-12-20T05:09:31;4.90;99.90
7240;DHT22;3661;53.288;10.458;2023-12-20T05:12:04;4.90;99.90
7240;DHT22;3661;53.288;10.458;2023-12-20T05:14:37;5.00;99.90
7240;DHT22;3661;53.288;10.458;2023-12-20T05:17:09;5.00;99.90
7240;DHT22;3661;53.288;10.458;2023-12-20T05:19:41;5.00;99.90
7240;DHT22;3661;53.288;10.458;2023-12-20T05:22:13;5.00;99.90
7240;DHT22;3661;53.288;10.458;2023-12-20T05:24:47;5.00;99.90
7240;DHT22;3661;53.288;10.458;2023-12-20T05:27:19;5.00;99.90
7240;DHT22;3661;53.288;10.458;2023-12-20T05:29:51;5.00;99.90
7240;DHT22;3661;53.288;10.458;2023-12-20T05:32:23;5.10;99.90
7240;DHT22;3661;53.288;10.458;2023-12-20T05:34:55;5.10;99.90
7240;DHT22;3661;53.288;10.458;2023-12-20T05:37:27;5.10;99.90
7240;DHT22;3661;53.288;10.458;2023-12-20T05:40:01;5.10;99.90
7240;DHT22;3661;53.288;10.458;2023-12-20T05:42:33;5.10;99.90
7240;DHT22;3661;53.288;10.458;2023-12-20T05:45:06;5.10;99.90
7240;DHT22;3661;53.288;10.458;2023-12-20T05:47:38;5.20;99.90
7240;DHT22;3661;53.288;10.458;2023-12-20T05:50:10;5.20;99.90
7240;DHT22;3661;53.288;10.458;2023-12-20T05:52:42;5.20;99.90
7240;DHT22;3661;53.288;10.458;2023-12-20T05:55:16;5.20;99.90
7240;DHT22;3661;53.288;10.458;2023-12-20T05:57:48;5.20;99.90
7240;DHT22;3661;53.288;10.458;2023-12-20T06:00:20;5.20;99.90
7240;DHT22;3661;53.288;10.458;2023-12-20T06:02:55;5.20;99.90
7240;DHT22;3661;53.288;10.458;2023-12-20T06:05:27;5.20;99.90
7240;DHT22;3661;53.288;10.458;2023-12-20T06:07:59;5.20;99.90
7240;DHT22;3661;53.288;10.458;2023-12-20T06:10:34;5.30;99.90
7240;DHT22;3661;53.288;10.458;2023-12-20T06:13:07;5.30;99.90
7240;DHT22;3661;53.288;10.458;2023-12-20T06:15:39;5.30;99.90
7240;DHT22;3661;53.288;10.458;2023-12-20T06:18:12;5.30;99.90
7240;DHT22;3661;53.288;10.458;2023-12-20T06:20:44;5.30;99.90
7240;DHT22;3661;53.288;10.458;2023-12-20T06:23:16;5.30;99.90
7240;DHT22;3661;53.288;10.458;2023-12-20T06:25:49;5.30;99.90
7240;DHT22;3661;53.288;10.458;2023-12-20T06:28:21;5.30;99.90
7240;DHT22;3661;53.288;10.458;2023-12-20T06:30:53;5.30;99.90
7240;DHT22;3661;53.288;10.458;2023-12-20T06:33:25;5.30;99.90
7240;DHT22;3661;53.288;10.458;2023-12-20T06:35:57;5.30;99.90
7240;DHT22;3661;53.288;10.458;2023-12-20T06:38:29;5.30;99.90
7240;DHT22;3661;53.288;10.458;2023-12-20T06:41:03;5.30;99.90
7240;DHT22;3661;53.288;10.458;2023-12-20T06:43:35;5.30;99.90
7240;DHT22;3661;53.288;10.458;2023-12-20T06:46:07;5.40;99.90
7240;DHT22;3661;53.288;10.458;2023-12-20T06:48:39;5.40;99.90
7240;DHT22;3661;53.288;10.458;2023-12-20T06:51:13;5.40;99.90
7240;DHT22;3661;53.288;10.458;2023-12-20T06:53:45;5.40;99.90
7240;DHT22;3661;53.288;10.458;2023-12-20T06:56:19;5.40;99.90
7240;DHT22;3661;53.288;10.458;2023-12-20T06:58:51;5.40;99.90
7240;DHT22;3661;53.288;10.458;2023-12-20T07:01:23;5.40;99.90
7240;DHT22;3661;53.288;10.458;2023-12-20T07:03:55;5.40;99.90
7240;DHT22;3661;53.288;10.458;2023-12-20T07:06:27;5.40;99.90
7240;DHT22;3661;53.288;10.458;2023-12-20T07:08:59;5.40;99.90
7240;DHT22;3661;53.288;10.458;2023-12-20T07:11:33;5.40;99.90
7240;DHT22;3661;53.288;10.458;2023-12-20T07:14:05;5.40;99.90
7240;DHT22;3661;53.288;10.458;2023-12-20T07:16:37;5.50;99.90
7240;DHT22;3661;53.288;10.458;2023-12-20T07:19:09;5.50;99.90
7240;DHT22;3661;53.288;10.458;2023-12-20T07:21:41;5.50;99.90
7240;DHT22;3661;53.288;10.458;2023-12-20T07:24:13;5.50;99.90
7240;DHT22;3661;53.288;10.458;2023-12-20T07:26:47;5.50;99.90
7240;DHT22;3661;53.288;10.458;2023-12-20T07:29:19;5.50;99.90
7240;DHT22;3661;53.288;10.458;2023-12-20T07:31:52;5.50;99.90
7240;DHT22;3661;53.288;10.458;2023-12-20T07:34:24;5.50;99.90
7240;DHT22;3661;53.288;10.458;2023-12-20T07:36:56;5.50;99.90
7240;DHT22;3661;53.288;10.458;2023-12-20T07:39:28;5.50;99.90
7240;DHT22;3661;53.288;10.458;2023-12-20T07:42:01;5.50;99.90
7240;DHT22;3661;53.288;10.458;2023-12-20T07:44:34;5.50;99.90
7240;DHT22;3661;53.288;10.458;2023-12-20T07:47:07;5.50;99.90
7240;DHT22;3661;53.288;10.458;2023-12-20T07:49:39;5.50;99.90
7240;DHT22;3661;53.288;10.458;2023-12-20T07:52:11;5.50;99.90
7240;DHT22;3661;53.288;10.458;2023-12-20T07:54:43;5.50;99.90
7240;DHT22;3661;53.288;10.458;2023-12-20T07:57:16;5.50;99.90
7240;DHT22;3661;53.288;10.458;2023-12-20T07:59:48;5.50;99.90
7240;DHT22;3661;53.288;10.458;2023-12-20T08:02:20;5.60;99.90
7240;DHT22;3661;53.288;10.458;2023-12-20T08:04:52;5.60;99.90
7240;DHT22;3661;53.288;10.458;2023-12-20T08:07:24;5.60;99.90
7240;DHT22;3661;53.288;10.458;2023-12-20T08:09:57;5.60;99.90
7240;DHT22;3661;53.288;10.458;2023-12-20T08:12:30;5.60;99.90
7240;DHT22;3661;53.288;10.458;2023-12-20T08:15:05;5.60;99.90
7240;DHT22;3661;53.288;10.458;2023-12-20T08:17:37;5.60;99.90
7240;DHT22;3661;53.288;10.458;2023-12-20T08:20:09;5.60;99.90
7240;DHT22;3661;53.288;10.458;2023-12-20T08:22:42;5.60;99.90
7240;DHT22;3661;53.288;10.458;2023-12-20T08:25:14;5.60;99.90
7240;DHT22;3661;53.288;10.458;2023-12-20T08:27:47;5.60;99.90
7240;DHT22;3661;53.288;10.458;2023-12-20T08:30:20;5.60;99.90
7240;DHT22;3661;53.288;10.458;2023-12-20T08:32:55;5.60;99.90
7240;DHT22;3661;53.288;10.458;2023-12-20T08:35:27;5.60;99.90
7240;DHT22;3661;53.288;10.458;2023-12-20T08:37:59;5.60;99.90
7240;DHT22;3661;53.288;10.458;2023-12-20T08:40:31;5.60;99.90
7240;DHT22;3661;53.288;10.458;2023-12-20T08:43:04;5.60;99.90
7240;DHT22;3661;53.288;10.458;2023-12-20T08:45:37;5.60;99.90
7240;DHT22;3661;53.288;10.458;2023-12-20T08:48:10;5.70;99.90
7240;DHT22;3661;53.288;10.458;2023-12-20T08:50:43;5.70;99.90
7240;DHT22;3661;53.288;10.458;2023-12-20T08:53:15;5.70;99.90
7240;DHT22;3661;53.288;10.458;2023-12-20T08:55:48;5.70;99.90
7240;DHT22;3661;53.288;10.458;2023-12-20T08:58:22;5.70;99.90
7240;DHT22;3661;53.288;10.458;2023-12-20T09:00:54;5.70;99.90
7240;DHT22;3661;53.288;10.458;2023-12-20T09:03:26;5.70;99.90
7240;DHT22;3661;53.288;10.458;2023-12-20T09:05:58;5.70;99.90
7240;DHT22;3661;53.288;10.458;2023-12-20T09:08:30;5.70;99.90
7240;DHT22;3661;53.288;10.458;2023-12-20T09:11:02;5.70;99.90
7240;DHT22;3661;53.288;10.458;2023-12-20T09:13:36;5.70;99.90
7240;DHT22;3661;53.288;10.458;2023-12-20T09:16:08;5.80;99.90
7240;DHT22;3661;53.288;10.458;2023-12-20T09:18:40;5.80;99.90
7240;DHT22;3661;53.288;10.458;2023-12-20T09:21:12;5.80;99.90
7240;DHT22;3661;53.288;10.458;2023-12-20T09:23:44;5.80;99.90
7240;DHT22;3661;53.288;10.458;2023-12-20T09:26:16;5.80;99.90
7240;DHT22;3661;53.288;10.458;2023-12-20T09:28:50;5.90;99.90
7240;DHT22;3661;53.288;10.458;2023-12-20T09:31:22;5.90;99.90
7240;DHT22;3661;53.288;10.458;2023-12-20T09:33:54;5.90;99.90
7240;DHT22;3661;53.288;10.458;2023-12-20T09:36:26;5.90;99.90
7240;DHT22;3661;53.288;10.458;2023-12-20T09:38:58;5.90;99.90
7240;DHT22;3661;53.288;10.458;2023-12-20T09:41:32;5.90;99.90
7240;DHT22;3661;53.288;10.458;2023-12-20T09:44:13;5.90;99.90
7240;DHT22;3661;53.288;10.458;2023-12-20T09:46:50;5.90;99.90
7240;DHT22;3661;53.288;10.458;2023-12-20T09:49:23;5.90;99.90
7240;DHT22;3661;53.288;10.458;2023-12-20T09:51:55;5.90;99.90
7240;DHT22;3661;53.288;10.458;2023-12-20T09:54:28;5.90;99.90
7240;DHT22;3661;53.288;10.458;2023-12-20T09:57:01;5.90;99.90
7240;DHT22;3661;53.288;10.458;2023-12-20T09:59:36;5.90;99.90
7240;DHT22;3661;53.288;10.458;2023-12-20T10:02:12;5.90;99.90
7240;DHT22;3661;53.288;10.458;2023-12-20T10:04:47;5.90;99.90
7240;DHT22;3661;53.288;10.458;2023-12-20T10:07:19;5.90;99.90
7240;DHT22;3661;53.288;10.458;2023-12-20T10:09:54;5.80;99.90
7240;DHT22;3661;53.288;10.458;2023-12-20T10:12:26;5.80;99.90
7240;DHT22;3661;53.288;10.458;2023-12-20T10:15:01;5.80;99.90
7240;DHT22;3661;53.288;10.458;2023-12-20T10:17:33;5.80;99.90
7240;DHT22;3661;53.288;10.458;2023-12-20T10:20:07;5.80;99.90
7240;DHT22;3661;53.288;10.458;2023-12-20T10:22:40;5.70;99.90
7240;DHT22;3661;53.288;10.458;2023-12-20T10:25:14;5.70;99.90
7240;DHT22;3661;53.288;10.458;2023-12-20T10:27:46;5.70;99.90
7240;DHT22;3661;53.288;10.458;2023-12-20T10:30:19;5.70;99.90
7240;DHT22;3661;53.288;10.458;2023-12-20T10:32:52;5.60;99.90
7240;DHT22;3661;53.288;10.458;2023-12-20T10:35:24;5.60;99.90
7240;DHT22;3661;53.288;10.458;2023-12-20T10:37:56;5.60;99.90
7240;DHT22;3661;53.288;10.458;2023-12-20T10:40:29;5.60;99.90
7240;DHT22;3661;53.288;10.458;2023-12-20T10:43:03;5.60;99.90
7240;DHT22;3661;53.288;10.458;2023-12-20T10:45:38;5.60;99.90
7240;DHT22;3661;53.288;10.458;2023-12-20T10:48:11;5.60;99.90
7240;DHT22;3661;53.288;10.458;2023-12-20T10:50:43;5.60;99.90
7240;DHT22;3661;53.288;10.458;2023-12-20T10:53:16;5.60;99.90
7240;DHT22;3661;53.288;10.458;2023-12-20T10:55:50;5.60;99.90
7240;DHT22;3661;53.288;10.458;2023-12-20T10:58:24;5.70;99.90
7240;DHT22;3661;53.288;10.458;2023-12-20T11:01:01;5.70;99.90
7240;DHT22;3661;53.288;10.458;2023-12-20T11:03:35;5.70;99.90
7240;DHT22;3661;53.288;10.458;2023-12-20T11:06:13;5.70;99.90
7240;DHT22;3661;53.288;10.458;2023-12-20T11:08:50;5.70;99.90
7240;DHT22;3661;53.288;10.458;2023-12-20T11:11:34;5.70;99.90
7240;DHT22;3661;53.288;10.458;2023-12-20T11:14:11;5.60;99.90
7240;DHT22;3661;53.288;10.458;2023-12-20T11:16:47;5.60;99.90
7240;DHT22;3661;53.288;10.458;2023-12-20T11:19:19;5.60;99.90
7240;DHT22;3661;53.288;10.458;2023-12-20T11:21:51;5.60;99.90
7240;DHT22;3661;53.288;10.458;2023-12-20T11:24:25;5.60;99.90
7240;DHT22;3661;53.288;10.458;2023-12-20T11:26:57;5.60;99.90
7240;DHT22;3661;53.288;10.458;2023-12-20T11:29:30;5.60;99.90
7240;DHT22;3661;53.288;10.458;2023-12-20T11:32:28;5.60;99.90
7240;DHT22;3661;53.288;10.458;2023-12-20T11:35:16;5.60;99.90
7240;DHT22;3661;53.288;10.458;2023-12-20T11:37:48;5.60;99.90
7240;DHT22;3661;53.288;10.458;2023-12-20T11:40:20;5.60;99.90
7240;DHT22;3661;53.288;10.458;2023-12-20T11:42:55;5.60;99.90
7240;DHT22;3661;53.288;10.458;2023-12-20T11:45:28;5.60;99.90
7240;DHT22;3661;53.288;10.458;2023-12-20T11:48:02;5.60;99.90
7240;DHT22;3661;53.288;10.458;2023-12-20T11:50:34;5.60;99.90
7240;DHT22;3661;53.288;10.458;2023-12-20T11:53:06;5.60;99.90
7240;DHT22;3661;53.288;10.458;2023-12-20T11:55:38;5.60;99.90
7240;DHT22;3661;53.288;10.458;2023-12-20T11:58:11;5.60;99.90
7240;DHT22;3661;53.288;10.458;2023-12-20T12:00:43;5.60;99.90
7240;DHT22;3661;53.288;10.458;2023-12-20T12:03:17;5.60;99.90
7240;DHT22;3661;53.288;10.458;2023-12-20T12:05:49;5.60;99.90
7240;DHT22;3661;53.288;10.458;2023-12-20T12:08:22;5.60;99.90
7240;DHT22;3661;53.288;10.458;2023-12-20T12:10:55;5.60;99.90
7240;DHT22;3661;53.288;10.458;2023-12-20T12:13:27;5.70;99.90
7240;DHT22;3661;53.288;10.458;2023-12-20T12:15:59;5.70;99.90
7240;DHT22;3661;53.288;10.458;2023-12-20T12:18:32;5.70;99.90
7240;DHT22;3661;53.288;10.458;2023-12-20T12:21:05;5.70;99.90
7240;DHT22;3661;53.288;10.458;2023-12-20T12:23:37;5.80;99.90
7240;DHT22;3661;53.288;10.458;2023-12-20T12:26:09;5.80;99.90
7240;DHT22;3661;53.288;10.458;2023-12-20T12:28:41;5.80;99.90
7240;DHT22;3661;53.288;10.458;2023-12-20T12:31:14;5.90;99.90
7240;DHT22;3661;53.288;10.458;2023-12-20T12:33:48;5.90;99.90
7240;DHT22;3661;53.288;10.458;2023-12-20T12:36:20;5.90;99.90
7240;DHT22;3661;53.288;10.458;2023-12-20T12:38:52;5.90;99.90
7240;DHT22;3661;53.288;10.458;2023-12-20T12:41:24;6.00;99.90
7240;DHT22;3661;53.288;10.458;2023-12-20T12:43:56;6.00;99.90
7240;DHT22;3661;53.288;10.458;2023-12-20T12:46:29;6.00;99.90
7240;DHT22;3661;53.288;10.458;2023-12-20T12:49:02;6.00;99.90
7240;DHT22;3661;53.288;10.458;2023-12-20T12:51:34;6.00;99.90
7240;DHT22;3661;53.288;10.458;2023-12-20T12:54:06;6.00;99.90
7240;DHT22;3661;53.288;10.458;2023-12-20T12:56:39;6.00;99.90
7240;DHT22;3661;53.288;10.458;2023-12-20T12:59:11;6.00;99.90
7240;DHT22;3661;53.288;10.458;2023-12-20T13:01:43;6.00;99.90
7240;DHT22;3661;53.288;10.458;2023-12-20T13:04:17;6.00;99.90
7240;DHT22;3661;53.288;10.458;2023-12-20T13:06:49;6.00;99.90
7240;DHT22;3661;53.288;10.458;2023-12-20T13:09:21;6.00;99.90
7240;DHT22;3661;53.288;10.458;2023-12-20T13:11:53;6.00;99.90
7240;DHT22;3661;53.288;10.458;2023-12-20T13:14:25;6.00;99.90
7240;DHT22;3661;53.288;10.458;2023-12-20T13:16:58;6.00;99.90
7240;DHT22;3661;53.288;10.458;2023-12-20T13:19:32;6.00;99.90
7240;DHT22;3661;53.288;10.458;2023-12-20T13:22:04;6.00;99.90
7240;DHT22;3661;53.288;10.458;2023-12-20T13:24:36;6.00;99.90
7240;DHT22;3661;53.288;10.458;2023-12-20T13:27:08;6.00;99.90
7240;DHT22;3661;53.288;10.458;2023-12-20T13:29:40;6.00;99.90
7240;DHT22;3661;53.288;10.458;2023-12-20T13:32:13;6.00;99.90
7240;DHT22;3661;53.288;10.458;2023-12-20T13:34:46;6.00;99.90
7240;DHT22;3661;53.288;10.458;2023-12-20T13:37:18;6.00;99.90
7240;DHT22;3661;53.288;10.458;2023-12-20T13:39:51;6.00;99.90
7240;DHT22;3661;53.288;10.458;2023-12-20T13:42:23;6.00;99.90
7240;DHT22;3661;53.288;10.458;2023-12-20T13:44:57;6.00;99.90
7240;DHT22;3661;53.288;10.458;2023-12-20T13:47:29;6.00;99.90
7240;DHT22;3661;53.288;10.458;2023-12-20T13:50:04;6.00;99.90
7240;DHT22;3661;53.288;10.458;2023-12-20T13:52:37;6.00;99.90
7240;DHT22;3661;53.288;10.458;2023-12-20T13:55:09;6.00;99.90
7240;DHT22;3661;53.288;10.458;2023-12-20T13:57:41;6.00;99.90
7240;DHT22;3661;53.288;10.458;2023-12-20T14:00:14;6.00;99.90
7240;DHT22;3661;53.288;10.458;2023-12-20T14:02:46;5.90;99.90
7240;DHT22;3661;53.288;10.458;2023-12-20T14:05:20;5.90;99.90
7240;DHT22;3661;53.288;10.458;2023-12-20T14:07:54;5.90;99.90
7240;DHT22;3661;53.288;10.458;2023-12-20T14:10:28;5.90;99.90
7240;DHT22;3661;53.288;10.458;2023-12-20T14:13:00;5.80;99.90
7240;DHT22;3661;53.288;10.458;2023-12-20T14:15:32;5.80;99.90
7240;DHT22;3661;53.288;10.458;2023-12-20T14:18:07;5.80;99.90
7240;DHT22;3661;53.288;10.458;2023-12-20T14:20:41;5.80;99.90
7240;DHT22;3661;53.288;10.458;2023-12-20T14:23:13;5.80;99.90
7240;DHT22;3661;53.288;10.458;2023-12-20T14:25:46;5.70;99.90
7240;DHT22;3661;53.288;10.458;2023-12-20T14:28:19;5.70;99.90
7240;DHT22;3661;53.288;10.458;2023-12-20T14:30:51;5.70;99.90
7240;DHT22;3661;53.288;10.458;2023-12-20T14:33:23;5.60;99.90
7240;DHT22;3661;53.288;10.458;2023-12-20T14:35:57;5.60;99.90
7240;DHT22;3661;53.288;10.458;2023-12-20T14:38:31;5.60;99.90
7240;DHT22;3661;53.288;10.458;2023-12-20T14:41:03;5.60;99.90
7240;DHT22;3661;53.288;10.458;2023-12-20T14:43:39;5.60;99.90
7240;DHT22;3661;53.288;10.458;2023-12-20T14:46:11;5.60;99.90
7240;DHT22;3661;53.288;10.458;2023-12-20T14:48:43;5.50;99.90
7240;DHT22;3661;53.288;10.458;2023-12-20T14:51:16;5.50;99.90
7240;DHT22;3661;53.288;10.458;2023-12-20T14:53:49;5.50;99.90
7240;DHT22;3661;53.288;10.458;2023-12-20T14:56:23;5.50;99.90
7240;DHT22;3661;53.288;10.458;2023-12-20T14:58:56;5.50;99.90
7240;DHT22;3661;53.288;10.458;2023-12-20T15:01:28;5.40;99.90
7240;DHT22;3661;53.288;10.458;2023-12-20T15:04:01;5.40;99.90
7240;DHT22;3661;53.288;10.458;2023-12-20T15:06:36;5.40;99.90
7240;DHT22;3661;53.288;10.458;2023-12-20T15:09:08;5.40;99.90
7240;DHT22;3661;53.288;10.458;2023-12-20T15:11:40;5.30;99.90
7240;DHT22;3661;53.288;10.458;2023-12-20T15:14:12;5.30;99.90
7240;DHT22;3661;53.288;10.458;2023-12-20T15:16:48;5.30;99.90
7240;DHT22;3661;53.288;10.458;2023-12-20T15:19:20;5.30;99.90
7240;DHT22;3661;53.288;10.458;2023-12-20T15:21:54;5.30;99.90
7240;DHT22;3661;53.288;10.458;2023-12-20T15:24:26;5.20;99.90
7240;DHT22;3661;53.288;10.458;2023-12-20T15:27:07;5.20;99.90
7240;DHT22;3661;53.288;10.458;2023-12-20T15:29:39;5.20;99.90
7240;DHT22;3661;53.288;10.458;2023-12-20T15:32:11;5.20;99.90
7240;DHT22;3661;53.288;10.458;2023-12-20T15:34:43;5.20;99.90
7240;DHT22;3661;53.288;10.458;2023-12-20T15:37:17;5.20;99.90
7240;DHT22;3661;53.288;10.458;2023-12-20T15:39:48;5.20;99.90
7240;DHT22;3661;53.288;10.458;2023-12-20T15:42:21;5.10;99.90
7240;DHT22;3661;53.288;10.458;2023-12-20T15:44:53;5.10;99.90
7240;DHT22;3661;53.288;10.458;2023-12-20T15:47:25;5.10;99.90
7240;DHT22;3661;53.288;10.458;2023-12-20T15:49:57;5.10;99.90
7240;DHT22;3661;53.288;10.458;2023-12-20T15:52:30;5.10;99.90
7240;DHT22;3661;53.288;10.458;2023-12-20T15:55:03;5.10;99.90
7240;DHT22;3661;53.288;10.458;2023-12-20T15:57:41;5.10;99.90
7240;DHT22;3661;53.288;10.458;2023-12-20T16:00:14;5.10;99.90
7240;DHT22;3661;53.288;10.458;2023-12-20T16:02:50;5.10;99.90
7240;DHT22;3661;53.288;10.458;2023-12-20T16:05:26;5.10;99.90
7240;DHT22;3661;53.288;10.458;2023-12-20T16:08:02;5.00;99.90
7240;DHT22;3661;53.288;10.458;2023-12-20T16:10:34;5.00;99.90
7240;DHT22;3661;53.288;10.458;2023-12-20T16:13:06;5.00;99.90
7240;DHT22;3661;53.288;10.458;2023-12-20T16:15:41;5.00;99.90
7240;DHT22;3661;53.288;10.458;2023-12-20T16:18:13;5.00;99.90
7240;DHT22;3661;53.288;10.458;2023-12-20T16:20:45;4.90;99.90
7240;DHT22;3661;53.288;10.458;2023-12-20T16:23:19;4.90;99.90
7240;DHT22;3661;53.288;10.458;2023-12-20T16:25:51;4.90;99.90
7240;DHT22;3661;53.288;10.458;2023-12-20T16:28:23;4.90;99.90
7240;DHT22;3661;53.288;10.458;2023-12-20T16:30:55;4.90;99.90
7240;DHT22;3661;53.288;10.458;2023-12-20T16:33:27;4.90;99.90
7240;DHT22;3661;53.288;10.458;2023-12-20T16:35:59;4.90;99.90
7240;DHT22;3661;53.288;10.458;2023-12-20T16:38:32;4.80;99.90